sensor_id;sensor_type;location;lat;lon;timestamp;temperature;humidity
31074;DHT22;17730;53.552;9.940;2022-11-20T00:00:00;2.80;99.90
31074;DHT22;17730;53.552;9.940;2022-11-20T00:02:26;2.80;99.90
31074;DHT22;17730;53.552;9.940;2022-11-20T00:04:51;2.80;99.90
31074;DHT22;17730;53.552;9.940;2022-11-20T00:07:17;2.80;99.90
31074;DHT22;17730;53.552;9.940;2022-11-20T00:09:43;2.80;99.90
31074;DHT22;17730;53.552;9.940;2022-11-20T00:12:08;2.80;99.90
31074;DHT22;17730;53.552;9.940;2022-11-20T00:14:34;2.80;99.90
31074;DHT22;17730;53.552;9.940;2022-11-20T00:16:59;2.80;1.00
31074;DHT22;17730;53.552;9.940;2022-11-20T00:19:25;2.80;1.00
31074;DHT22;17730;53.552;9.940;2022-11-20T00:21:51;2.80;5.50
31074;DHT22;17730;53.552;9.940;2022-11-20T00:24:19;2.80;90.90
31074;DHT22;17730;53.552;9.940;2022-11-20T00:26:44;2.70;99.90
31074;DHT22;17730;53.552;9.940;2022-11-20T00:29:10;2.80;99.90
31074;DHT22;17730;53.552;9.940;2022-11-20T00:31:36;2.80;99.90
31074;DHT22;17730;53.552;9.940;2022-11-20T00:34:02;2.80;99.90
31074;DHT22;17730;53.552;9.940;2022-11-20T00:36:28;2.80;99.90
31074;DHT22;17730;53.552;9.940;2022-11-20T00:38:56;2.80;99.90
31074;DHT22;17730;53.552;9.940;2022-11-20T00:41:23;2.90;99.90
31074;DHT22;17730;53.552;9.940;2022-11-20T00:43:49;2.80;99.90
31074;DHT22;17730;53.552;9.940;2022-11-20T00:46:19;2.80;99.90
31074;DHT22;17730;53.552;9.940;2022-11-20T00:48:45;2.80;99.90
31074;DHT22;17730;53.552;9.940;2022-11-20T00:51:14;2.80;99.90
31074;DHT22;17730;53.552;9.940;2022-11-20T00:53:40;2.80;99.90
31074;DHT22;17730;53.552;9.940;2022-11-20T00:56:10;2.80;1.00
31074;DHT22;17730;53.552;9.940;2022-11-20T00:58:38;2.80;1.00
31074;DHT22;17730;53.552;9.940;2022-11-20T01:01:07;2.70;1.00
31074;DHT22;17730;53.552;9.940;2022-11-20T01:03:35;2.70;1.00
31074;DHT22;17730;53.552;9.940;2022-11-20T01:06:12;2.70;1.00
31074;DHT22;17730;53.552;9.940;2022-11-20T01:08:38;2.70;1.00
31074;DHT22;17730;53.552;9.940;2022-11-20T01:11:10;2.70;1.00
31074;DHT22;17730;53.552;9.940;2022-11-20T01:13:36;2.70;1.00
31074;DHT22;17730;53.552;9.940;2022-11-20T01:16:19;2.70;1.00
31074;DHT22;17730;53.552;9.940;2022-11-20T01:18:47;2.70;1.00
31074;DHT22;17730;53.552;9.940;2022-11-20T01:21:16;2.70;1.00
31074;DHT22;17730;53.552;9.940;2022-11-20T01:23:43;2.60;1.00
31074;DHT22;17730;53.552;9.940;2022-11-20T01:26:12;2.60;1.00
31074;DHT22;17730;53.552;9.940;2022-11-20T01:28:39;2.70;1.00
31074;DHT22;17730;53.552;9.940;2022-11-20T01:31:26;2.70;1.00
31074;DHT22;17730;53.552;9.940;2022-11-20T01:33:54;2.70;1.00
31074;DHT22;17730;53.552;9.940;2022-11-20T01:36:21;2.70;1.00
31074;DHT22;17730;53.552;9.940;2022-11-20T01:38:47;2.70;1.40
31074;DHT22;17730;53.552;9.940;2022-11-20T01:41:14;2.70;1.00
31074;DHT22;17730;53.552;9.940;2022-11-20T01:44:00;2.70;1.00
31074;DHT22;17730;53.552;9.940;2022-11-20T01:46:26;2.70;3.00
31074;DHT22;17730;53.552;9.940;2022-11-20T01:49:10;2.80;1.00
31074;DHT22;17730;53.552;9.940;2022-11-20T01:51:55;2.80;1.00
31074;DHT22;17730;53.552;9.940;2022-11-20T01:54:30;2.80;1.00
31074;DHT22;17730;53.552;9.940;2022-11-20T01:57:00;2.80;2.00
31074;DHT22;17730;53.552;9.940;2022-11-20T01:59:28;2.80;4.80
31074;DHT22;17730;53.552;9.940;2022-11-20T02:01:55;2.80;8.40
31074;DHT22;17730;53.552;9.940;2022-11-20T02:04:21;2.80;8.00
31074;DHT22;17730;53.552;9.940;2022-11-20T02:06:50;2.80;9.60
31074;DHT22;17730;53.552;9.940;2022-11-20T02:09:19;2.80;15.40
31074;DHT22;17730;53.552;9.940;2022-11-20T02:11:44;2.80;13.10
31074;DHT22;17730;53.552;9.940;2022-11-20T02:14:10;2.80;15.00
31074;DHT22;17730;53.552;9.940;2022-11-20T02:16:40;2.80;13.60
31074;DHT22;17730;53.552;9.940;2022-11-20T02:19:19;2.80;17.60
31074;DHT22;17730;53.552;9.940;2022-11-20T02:22:09;2.70;19.40
31074;DHT22;17730;53.552;9.940;2022-11-20T02:24:38;2.70;23.40
31074;DHT22;17730;53.552;9.940;2022-11-20T02:27:13;2.70;27.80
31074;DHT22;17730;53.552;9.940;2022-11-20T02:29:52;2.70;29.30
31074;DHT22;17730;53.552;9.940;2022-11-20T02:32:26;2.70;28.30
31074;DHT22;17730;53.552;9.940;2022-11-20T02:34:53;2.70;28.70
31074;DHT22;17730;53.552;9.940;2022-11-20T02:37:19;2.70;30.50
31074;DHT22;17730;53.552;9.940;2022-11-20T02:39:47;2.70;31.40
31074;DHT22;17730;53.552;9.940;2022-11-20T02:42:14;2.70;34.70
31074;DHT22;17730;53.552;9.940;2022-11-20T02:44:39;2.70;34.70
31074;DHT22;17730;53.552;9.940;2022-11-20T02:47:05;2.70;37.00
31074;DHT22;17730;53.552;9.940;2022-11-20T02:49:31;2.70;38.40
31074;DHT22;17730;53.552;9.940;2022-11-20T02:51:57;2.70;37.80
31074;DHT22;17730;53.552;9.940;2022-11-20T02:54:23;2.70;35.90
31074;DHT22;17730;53.552;9.940;2022-11-20T02:56:49;2.70;38.50
31074;DHT22;17730;53.552;9.940;2022-11-20T02:59:14;2.60;37.70
31074;DHT22;17730;53.552;9.940;2022-11-20T03:01:40;2.60;40.20
31074;DHT22;17730;53.552;9.940;2022-11-20T03:04:05;2.60;42.70
31074;DHT22;17730;53.552;9.940;2022-11-20T03:06:31;2.60;47.00
31074;DHT22;17730;53.552;9.940;2022-11-20T03:08:57;2.60;48.50
31074;DHT22;17730;53.552;9.940;2022-11-20T03:11:23;2.60;51.40
31074;DHT22;17730;53.552;9.940;2022-11-20T03:13:48;2.60;51.70
31074;DHT22;17730;53.552;9.940;2022-11-20T03:16:20;2.60;54.30
31074;DHT22;17730;53.552;9.940;2022-11-20T03:18:46;2.60;52.30
31074;DHT22;17730;53.552;9.940;2022-11-20T03:21:12;2.60;55.00
31074;DHT22;17730;53.552;9.940;2022-11-20T03:23:38;2.60;57.10
31074;DHT22;17730;53.552;9.940;2022-11-20T03:26:25;2.60;53.90
31074;DHT22;17730;53.552;9.940;2022-11-20T03:28:53;2.60;56.70
31074;DHT22;17730;53.552;9.940;2022-11-20T03:31:22;2.60;58.00
31074;DHT22;17730;53.552;9.940;2022-11-20T03:33:47;2.60;61.60
31074;DHT22;17730;53.552;9.940;2022-11-20T03:36:15;2.60;61.70
31074;DHT22;17730;53.552;9.940;2022-11-20T03:38:41;2.60;61.60
31074;DHT22;17730;53.552;9.940;2022-11-20T03:41:22;2.60;62.50
31074;DHT22;17730;53.552;9.940;2022-11-20T03:43:52;2.60;62.70
31074;DHT22;17730;53.552;9.940;2022-11-20T03:46:18;2.60;61.00
31074;DHT22;17730;53.552;9.940;2022-11-20T03:48:43;2.50;62.60
31074;DHT22;17730;53.552;9.940;2022-11-20T03:51:12;2.50;62.80
31074;DHT22;17730;53.552;9.940;2022-11-20T03:53:39;2.50;62.70
31074;DHT22;17730;53.552;9.940;2022-11-20T03:56:06;2.40;64.20
31074;DHT22;17730;53.552;9.940;2022-11-20T03:58:33;2.50;64.10
31074;DHT22;17730;53.552;9.940;2022-11-20T04:01:09;2.40;63.90
31074;DHT22;17730;53.552;9.940;2022-11-20T04:03:35;2.50;66.80
31074;DHT22;17730;53.552;9.940;2022-11-20T04:06:13;2.50;66.30
31074;DHT22;17730;53.552;9.940;2022-11-20T04:08:39;2.40;68.80
31074;DHT22;17730;53.552;9.940;2022-11-20T04:11:15;2.50;70.00
31074;DHT22;17730;53.552;9.940;2022-11-20T04:13:41;2.50;69.50
31074;DHT22;17730;53.552;9.940;2022-11-20T04:16:08;2.40;68.30
31074;DHT22;17730;53.552;9.940;2022-11-20T04:18:35;2.40;73.50
31074;DHT22;17730;53.552;9.940;2022-11-20T04:21:01;2.40;73.40
31074;DHT22;17730;53.552;9.940;2022-11-20T04:23:27;2.30;74.00
31074;DHT22;17730;53.552;9.940;2022-11-20T04:25:52;2.30;76.00
31074;DHT22;17730;53.552;9.940;2022-11-20T04:28:18;2.40;76.30
31074;DHT22;17730;53.552;9.940;2022-11-20T04:30:44;2.40;76.80
31074;DHT22;17730;53.552;9.940;2022-11-20T04:33:10;2.40;76.00
31074;DHT22;17730;53.552;9.940;2022-11-20T04:35:36;2.30;76.70
31074;DHT22;17730;53.552;9.940;2022-11-20T04:38:02;2.40;77.30
31074;DHT22;17730;53.552;9.940;2022-11-20T04:40:28;2.40;76.30
31074;DHT22;17730;53.552;9.940;2022-11-20T04:42:54;2.40;73.30
31074;DHT22;17730;53.552;9.940;2022-11-20T04:45:20;2.40;72.90
31074;DHT22;17730;53.552;9.940;2022-11-20T04:47:46;2.40;73.90
31074;DHT22;17730;53.552;9.940;2022-11-20T04:50:12;2.40;73.90
31074;DHT22;17730;53.552;9.940;2022-11-20T04:52:37;2.40;74.50
31074;DHT22;17730;53.552;9.940;2022-11-20T04:55:03;2.40;71.80
31074;DHT22;17730;53.552;9.940;2022-11-20T04:57:29;2.40;68.20
31074;DHT22;17730;53.552;9.940;2022-11-20T04:59:55;2.50;78.10
31074;DHT22;17730;53.552;9.940;2022-11-20T05:02:20;2.50;71.90
31074;DHT22;17730;53.552;9.940;2022-11-20T05:04:46;2.50;66.90
31074;DHT22;17730;53.552;9.940;2022-11-20T05:07:12;2.50;62.30
31074;DHT22;17730;53.552;9.940;2022-11-20T05:09:37;2.40;62.40
31074;DHT22;17730;53.552;9.940;2022-11-20T05:12:03;2.50;60.60
31074;DHT22;17730;53.552;9.940;2022-11-20T05:14:29;2.40;60.30
31074;DHT22;17730;53.552;9.940;2022-11-20T05:16:54;2.40;61.30
31074;DHT22;17730;53.552;9.940;2022-11-20T05:19:20;2.40;60.30
31074;DHT22;17730;53.552;9.940;2022-11-20T05:21:46;2.30;62.60
31074;DHT22;17730;53.552;9.940;2022-11-20T05:24:11;2.30;63.80
31074;DHT22;17730;53.552;9.940;2022-11-20T05:26:37;2.30;64.60
31074;DHT22;17730;53.552;9.940;2022-11-20T05:29:03;2.30;65.80
31074;DHT22;17730;53.552;9.940;2022-11-20T05:31:28;2.30;64.10
31074;DHT22;17730;53.552;9.940;2022-11-20T05:33:55;2.30;67.40
31074;DHT22;17730;53.552;9.940;2022-11-20T05:36:21;2.30;66.00
31074;DHT22;17730;53.552;9.940;2022-11-20T05:38:47;2.30;67.70
31074;DHT22;17730;53.552;9.940;2022-11-20T05:41:18;2.30;67.30
31074;DHT22;17730;53.552;9.940;2022-11-20T05:43:45;2.30;69.20
31074;DHT22;17730;53.552;9.940;2022-11-20T05:46:13;2.30;71.40
31074;DHT22;17730;53.552;9.940;2022-11-20T05:48:41;2.30;73.40
31074;DHT22;17730;53.552;9.940;2022-11-20T05:51:10;2.30;75.50
31074;DHT22;17730;53.552;9.940;2022-11-20T05:53:36;2.30;78.20
31074;DHT22;17730;53.552;9.940;2022-11-20T05:56:07;2.30;80.90
31074;DHT22;17730;53.552;9.940;2022-11-20T05:58:35;2.30;80.80
31074;DHT22;17730;53.552;9.940;2022-11-20T06:01:10;2.30;81.90
31074;DHT22;17730;53.552;9.940;2022-11-20T06:03:36;2.30;82.10
31074;DHT22;17730;53.552;9.940;2022-11-20T06:06:04;2.30;83.70
31074;DHT22;17730;53.552;9.940;2022-11-20T06:08:30;2.30;82.90
31074;DHT22;17730;53.552;9.940;2022-11-20T06:10:56;2.30;82.90
31074;DHT22;17730;53.552;9.940;2022-11-20T06:13:22;2.20;85.40
31074;DHT22;17730;53.552;9.940;2022-11-20T06:15:51;2.20;85.90
31074;DHT22;17730;53.552;9.940;2022-11-20T06:18:18;2.20;85.20
31074;DHT22;17730;53.552;9.940;2022-11-20T06:20:44;2.20;89.20
31074;DHT22;17730;53.552;9.940;2022-11-20T06:23:10;2.20;87.80
31074;DHT22;17730;53.552;9.940;2022-11-20T06:25:40;2.20;87.10
31074;DHT22;17730;53.552;9.940;2022-11-20T06:28:06;2.20;88.60
31074;DHT22;17730;53.552;9.940;2022-11-20T06:30:32;2.20;86.40
31074;DHT22;17730;53.552;9.940;2022-11-20T06:32:58;2.30;85.50
31074;DHT22;17730;53.552;9.940;2022-11-20T06:35:23;2.30;86.10
31074;DHT22;17730;53.552;9.940;2022-11-20T06:37:49;2.30;87.10
31074;DHT22;17730;53.552;9.940;2022-11-20T06:40:14;2.30;89.70
31074;DHT22;17730;53.552;9.940;2022-11-20T06:42:40;2.30;86.10
31074;DHT22;17730;53.552;9.940;2022-11-20T06:45:06;2.20;86.20
31074;DHT22;17730;53.552;9.940;2022-11-20T06:47:32;2.20;86.10
31074;DHT22;17730;53.552;9.940;2022-11-20T06:49:58;2.10;84.50
31074;DHT22;17730;53.552;9.940;2022-11-20T06:52:24;2.10;86.00
31074;DHT22;17730;53.552;9.940;2022-11-20T06:54:49;2.10;89.90
31074;DHT22;17730;53.552;9.940;2022-11-20T06:57:15;2.10;88.30
31074;DHT22;17730;53.552;9.940;2022-11-20T06:59:40;2.00;90.10
31074;DHT22;17730;53.552;9.940;2022-11-20T07:02:10;1.90;90.30
31074;DHT22;17730;53.552;9.940;2022-11-20T07:04:36;1.90;92.00
31074;DHT22;17730;53.552;9.940;2022-11-20T07:07:01;1.90;91.90
31074;DHT22;17730;53.552;9.940;2022-11-20T07:09:27;1.90;93.80
31074;DHT22;17730;53.552;9.940;2022-11-20T07:11:53;1.90;93.60
31074;DHT22;17730;53.552;9.940;2022-11-20T07:14:18;1.90;94.10
31074;DHT22;17730;53.552;9.940;2022-11-20T07:16:44;1.90;94.40
31074;DHT22;17730;53.552;9.940;2022-11-20T07:19:09;1.90;95.10
31074;DHT22;17730;53.552;9.940;2022-11-20T07:21:35;1.90;94.60
31074;DHT22;17730;53.552;9.940;2022-11-20T07:24:01;1.90;95.50
31074;DHT22;17730;53.552;9.940;2022-11-20T07:26:26;1.90;95.00
31074;DHT22;17730;53.552;9.940;2022-11-20T07:28:52;1.90;95.80
31074;DHT22;17730;53.552;9.940;2022-11-20T07:31:18;1.80;95.80
31074;DHT22;17730;53.552;9.940;2022-11-20T07:33:43;1.80;96.80
31074;DHT22;17730;53.552;9.940;2022-11-20T07:36:09;1.80;98.80
31074;DHT22;17730;53.552;9.940;2022-11-20T07:38:34;1.90;99.50
31074;DHT22;17730;53.552;9.940;2022-11-20T07:41:00;1.90;99.90
31074;DHT22;17730;53.552;9.940;2022-11-20T07:43:27;1.90;99.90
31074;DHT22;17730;53.552;9.940;2022-11-20T07:45:55;2.00;99.90
31074;DHT22;17730;53.552;9.940;2022-11-20T07:48:21;2.10;99.90
31074;DHT22;17730;53.552;9.940;2022-11-20T07:50:47;2.20;99.90
31074;DHT22;17730;53.552;9.940;2022-11-20T07:53:13;2.20;99.10
31074;DHT22;17730;53.552;9.940;2022-11-20T07:55:39;2.30;93.80
31074;DHT22;17730;53.552;9.940;2022-11-20T07:58:05;2.40;90.50
31074;DHT22;17730;53.552;9.940;2022-11-20T08:00:31;2.40;82.20
31074;DHT22;17730;53.552;9.940;2022-11-20T08:02:57;2.40;72.10
31074;DHT22;17730;53.552;9.940;2022-11-20T08:05:22;2.40;65.60
31074;DHT22;17730;53.552;9.940;2022-11-20T08:07:48;2.40;61.20
31074;DHT22;17730;53.552;9.940;2022-11-20T08:10:15;2.30;61.80
31074;DHT22;17730;53.552;9.940;2022-11-20T08:12:46;2.40;64.50
31074;DHT22;17730;53.552;9.940;2022-11-20T08:15:30;2.40;61.40
31074;DHT22;17730;53.552;9.940;2022-11-20T08:18:08;2.40;53.20
31074;DHT22;17730;53.552;9.940;2022-11-20T08:20:35;2.50;51.70
31074;DHT22;17730;53.552;9.940;2022-11-20T08:23:02;2.50;41.80
31074;DHT22;17730;53.552;9.940;2022-11-20T08:25:29;2.50;38.00
31074;DHT22;17730;53.552;9.940;2022-11-20T08:28:00;2.50;36.20
31074;DHT22;17730;53.552;9.940;2022-11-20T08:30:26;2.60;29.70
31074;DHT22;17730;53.552;9.940;2022-11-20T08:32:53;2.50;30.60
31074;DHT22;17730;53.552;9.940;2022-11-20T08:35:19;2.60;33.50
31074;DHT22;17730;53.552;9.940;2022-11-20T08:37:48;2.60;32.10
31074;DHT22;17730;53.552;9.940;2022-11-20T08:40:14;2.60;28.80
31074;DHT22;17730;53.552;9.940;2022-11-20T08:42:50;2.50;28.80
31074;DHT22;17730;53.552;9.940;2022-11-20T08:45:17;2.60;29.30
31074;DHT22;17730;53.552;9.940;2022-11-20T08:47:44;2.60;29.00
31074;DHT22;17730;53.552;9.940;2022-11-20T08:50:11;2.70;27.70
31074;DHT22;17730;53.552;9.940;2022-11-20T08:52:37;2.70;25.60
31074;DHT22;17730;53.552;9.940;2022-11-20T08:55:04;2.80;22.90
31074;DHT22;17730;53.552;9.940;2022-11-20T08:57:33;2.80;20.50
31074;DHT22;17730;53.552;9.940;2022-11-20T08:59:59;2.80;12.80
31074;DHT22;17730;53.552;9.940;2022-11-20T09:02:25;2.80;3.30
31074;DHT22;17730;53.552;9.940;2022-11-20T09:04:51;2.90;15.50
31074;DHT22;17730;53.552;9.940;2022-11-20T09:07:18;3.10;21.30
31074;DHT22;17730;53.552;9.940;2022-11-20T09:09:44;3.50;1.00
31074;DHT22;17730;53.552;9.940;2022-11-20T09:12:10;3.50;99.90
31074;DHT22;17730;53.552;9.940;2022-11-20T09:14:36;3.40;99.90
31074;DHT22;17730;53.552;9.940;2022-11-20T09:17:02;3.20;99.90
31074;DHT22;17730;53.552;9.940;2022-11-20T09:19:27;3.20;1.00
31074;DHT22;17730;53.552;9.940;2022-11-20T09:21:53;3.30;1.00
31074;DHT22;17730;53.552;9.940;2022-11-20T09:24:19;3.30;1.00
31074;DHT22;17730;53.552;9.940;2022-11-20T09:26:46;3.50;1.00
31074;DHT22;17730;53.552;9.940;2022-11-20T09:29:12;3.90;1.00
31074;DHT22;17730;53.552;9.940;2022-11-20T09:31:38;4.00;99.90
31074;DHT22;17730;53.552;9.940;2022-11-20T09:34:04;3.90;91.10
31074;DHT22;17730;53.552;9.940;2022-11-20T09:36:29;3.80;99.90
31074;DHT22;17730;53.552;9.940;2022-11-20T09:38:55;3.80;99.90
31074;DHT22;17730;53.552;9.940;2022-11-20T09:49:44;3.10;1.00
31074;DHT22;17730;53.552;9.940;2022-11-20T09:55:02;3.10;1.00
31074;DHT22;17730;53.552;9.940;2022-11-20T09:57:36;3.10;1.00
31074;DHT22;17730;53.552;9.940;2022-11-20T10:00:05;3.20;1.00
31074;DHT22;17730;53.552;9.940;2022-11-20T10:02:45;3.30;1.00
31074;DHT22;17730;53.552;9.940;2022-11-20T10:05:25;3.40;1.00
31074;DHT22;17730;53.552;9.940;2022-11-20T10:07:53;3.80;1.00
31074;DHT22;17730;53.552;9.940;2022-11-20T10:14:16;4.70;99.90
31074;DHT22;17730;53.552;9.940;2022-11-20T10:22:12;4.30;99.90
31074;DHT22;17730;53.552;9.940;2022-11-20T10:24:51;4.20;1.00
31074;DHT22;17730;53.552;9.940;2022-11-20T10:32:45;4.40;41.40
31074;DHT22;17730;53.552;9.940;2022-11-20T10:35:20;4.60;18.70
31074;DHT22;17730;53.552;9.940;2022-11-20T10:37:51;4.70;1.00
31074;DHT22;17730;53.552;9.940;2022-11-20T10:42:56;4.80;99.90
31074;DHT22;17730;53.552;9.940;2022-11-20T10:47:54;4.60;99.90
31074;DHT22;17730;53.552;9.940;2022-11-20T10:50:22;4.40;40.50
31074;DHT22;17730;53.552;9.940;2022-11-20T10:53:14;4.40;1.00
31074;DHT22;17730;53.552;9.940;2022-11-20T10:56:05;4.40;99.90
31074;DHT22;17730;53.552;9.940;2022-11-20T11:01:42;4.40;95.60
31074;DHT22;17730;53.552;9.940;2022-11-20T11:07:01;4.60;1.00
31074;DHT22;17730;53.552;9.940;2022-11-20T11:09:36;4.60;99.90
31074;DHT22;17730;53.552;9.940;2022-11-20T11:12:09;4.50;99.90
31074;DHT22;17730;53.552;9.940;2022-11-20T11:14:47;4.50;99.90
31074;DHT22;17730;53.552;9.940;2022-11-20T11:17:31;4.40;99.90
31074;DHT22;17730;53.552;9.940;2022-11-20T11:22:47;4.20;99.90
31074;DHT22;17730;53.552;9.940;2022-11-20T11:25:25;3.90;40.40
31074;DHT22;17730;53.552;9.940;2022-11-20T11:27:52;3.70;1.00
31074;DHT22;17730;53.552;9.940;2022-11-20T11:30:19;3.80;99.90
31074;DHT22;17730;53.552;9.940;2022-11-20T11:32:45;3.80;99.90
31074;DHT22;17730;53.552;9.940;2022-11-20T11:35:28;3.90;1.00
31074;DHT22;17730;53.552;9.940;2022-11-20T11:38:03;3.90;99.90
31074;DHT22;17730;53.552;9.940;2022-11-20T11:40:32;4.00;99.90
31074;DHT22;17730;53.552;9.940;2022-11-20T11:43:15;4.00;99.90
31074;DHT22;17730;53.552;9.940;2022-11-20T11:46:01;4.00;99.90
31074;DHT22;17730;53.552;9.940;2022-11-20T11:48:27;3.90;1.00
31074;DHT22;17730;53.552;9.940;2022-11-20T11:50:53;3.70;99.90
31074;DHT22;17730;53.552;9.940;2022-11-20T11:53:21;3.70;99.90
31074;DHT22;17730;53.552;9.940;2022-11-20T11:56:08;3.80;99.90
31074;DHT22;17730;53.552;9.940;2022-11-20T11:58:53;3.70;99.90
31074;DHT22;17730;53.552;9.940;2022-11-20T12:01:44;3.70;99.90
31074;DHT22;17730;53.552;9.940;2022-11-20T12:04:20;3.70;90.50
31074;DHT22;17730;53.552;9.940;2022-11-20T12:06:50;3.70;99.90
31074;DHT22;17730;53.552;9.940;2022-11-20T12:09:18;3.80;1.00
31074;DHT22;17730;53.552;9.940;2022-11-20T12:12:04;3.80;1.00
31074;DHT22;17730;53.552;9.940;2022-11-20T12:14:35;3.80;99.90
31074;DHT22;17730;53.552;9.940;2022-11-20T12:17:02;3.80;99.90
31074;DHT22;17730;53.552;9.940;2022-11-20T12:19:33;3.90;13.80
31074;DHT22;17730;53.552;9.940;2022-11-20T12:25:24;4.10;99.90
31074;DHT22;17730;53.552;9.940;2022-11-20T12:30:48;4.20;99.70
31074;DHT22;17730;53.552;9.940;2022-11-20T12:33:38;4.20;99.90
31074;DHT22;17730;53.552;9.940;2022-11-20T12:36:31;4.30;99.90
31074;DHT22;17730;53.552;9.940;2022-11-20T12:41:54;4.30;99.90
31074;DHT22;17730;53.552;9.940;2022-11-20T12:53:37;4.00;99.90
31074;DHT22;17730;53.552;9.940;2022-11-20T12:56:34;3.90;99.90
31074;DHT22;17730;53.552;9.940;2022-11-20T13:01:47;4.10;19.70
31074;DHT22;17730;53.552;9.940;2022-11-20T13:07:06;4.20;99.90
31074;DHT22;17730;53.552;9.940;2022-11-20T13:09:42;4.20;99.90
31074;DHT22;17730;53.552;9.940;2022-11-20T13:12:10;4.20;99.90
31074;DHT22;17730;53.552;9.940;2022-11-20T13:15:00;4.30;99.90
31074;DHT22;17730;53.552;9.940;2022-11-20T13:17:35;4.30;74.30
31074;DHT22;17730;53.552;9.940;2022-11-20T13:20:04;4.30;99.90
31074;DHT22;17730;53.552;9.940;2022-11-20T13:22:51;4.30;99.90
31074;DHT22;17730;53.552;9.940;2022-11-20T13:25:35;4.30;99.90
31074;DHT22;17730;53.552;9.940;2022-11-20T13:28:26;4.30;99.90
31074;DHT22;17730;53.552;9.940;2022-11-20T13:30:51;4.30;99.90
31074;DHT22;17730;53.552;9.940;2022-11-20T13:33:30;4.30;99.90
31074;DHT22;17730;53.552;9.940;2022-11-20T13:36:24;4.30;99.90
31074;DHT22;17730;53.552;9.940;2022-11-20T13:38:53;4.40;1.00
31074;DHT22;17730;53.552;9.940;2022-11-20T13:43:57;4.40;99.90
31074;DHT22;17730;53.552;9.940;2022-11-20T13:46:23;4.40;14.30
31074;DHT22;17730;53.552;9.940;2022-11-20T13:48:50;4.40;20.40
31074;DHT22;17730;53.552;9.940;2022-11-20T14:00:03;4.30;40.50
31074;DHT22;17730;53.552;9.940;2022-11-20T14:02:32;4.20;99.90
31074;DHT22;17730;53.552;9.940;2022-11-20T14:04:59;4.20;99.90
31074;DHT22;17730;53.552;9.940;2022-11-20T14:07:32;4.30;99.90
31074;DHT22;17730;53.552;9.940;2022-11-20T14:10:00;4.20;99.90
31074;DHT22;17730;53.552;9.940;2022-11-20T14:12:31;4.30;99.90
31074;DHT22;17730;53.552;9.940;2022-11-20T14:14:57;4.20;46.00
31074;DHT22;17730;53.552;9.940;2022-11-20T14:17:33;4.20;74.80
31074;DHT22;17730;53.552;9.940;2022-11-20T14:20:04;4.20;99.90
31074;DHT22;17730;53.552;9.940;2022-11-20T14:22:31;4.00;99.90
31074;DHT22;17730;53.552;9.940;2022-11-20T14:27:39;4.10;1.00
31074;DHT22;17730;53.552;9.940;2022-11-20T14:30:18;4.20;1.00
31074;DHT22;17730;53.552;9.940;2022-11-20T14:32:46;4.20;99.90
31074;DHT22;17730;53.552;9.940;2022-11-20T14:35:27;4.10;99.90
31074;DHT22;17730;53.552;9.940;2022-11-20T14:37:54;4.20;1.00
31074;DHT22;17730;53.552;9.940;2022-11-20T14:40:31;4.10;1.00
31074;DHT22;17730;53.552;9.940;2022-11-20T14:42:58;4.10;1.00
31074;DHT22;17730;53.552;9.940;2022-11-20T14:45:25;4.10;99.90
31074;DHT22;17730;53.552;9.940;2022-11-20T14:47:56;4.10;99.90
31074;DHT22;17730;53.552;9.940;2022-11-20T14:50:26;4.00;99.90
31074;DHT22;17730;53.552;9.940;2022-11-20T14:52:57;4.00;1.00
31074;DHT22;17730;53.552;9.940;2022-11-20T14:55:35;3.90;1.00
31074;DHT22;17730;53.552;9.940;2022-11-20T14:58:18;3.90;97.40
31074;DHT22;17730;53.552;9.940;2022-11-20T15:00:57;3.90;99.90
31074;DHT22;17730;53.552;9.940;2022-11-20T15:03:23;3.80;99.90
31074;DHT22;17730;53.552;9.940;2022-11-20T15:05:50;3.80;99.90
31074;DHT22;17730;53.552;9.940;2022-11-20T15:08:16;3.70;1.00
31074;DHT22;17730;53.552;9.940;2022-11-20T15:11:00;3.60;82.40
31074;DHT22;17730;53.552;9.940;2022-11-20T15:15:55;3.50;1.00
31074;DHT22;17730;53.552;9.940;2022-11-20T15:18:32;3.60;1.00
31074;DHT22;17730;53.552;9.940;2022-11-20T15:21:05;3.50;99.90
31074;DHT22;17730;53.552;9.940;2022-11-20T15:23:34;3.50;99.90
31074;DHT22;17730;53.552;9.940;2022-11-20T15:26:00;3.40;99.90
31074;DHT22;17730;53.552;9.940;2022-11-20T15:30:57;3.30;99.90
31074;DHT22;17730;53.552;9.940;2022-11-20T15:33:23;3.30;1.00
31074;DHT22;17730;53.552;9.940;2022-11-20T15:35:49;3.20;99.90
31074;DHT22;17730;53.552;9.940;2022-11-20T15:38:14;3.20;1.00
31074;DHT22;17730;53.552;9.940;2022-11-20T15:40:40;3.30;99.90
31074;DHT22;17730;53.552;9.940;2022-11-20T15:43:06;3.40;99.90
31074;DHT22;17730;53.552;9.940;2022-11-20T15:45:45;3.40;99.90
31074;DHT22;17730;53.552;9.940;2022-11-20T15:48:20;3.40;99.90
31074;DHT22;17730;53.552;9.940;2022-11-20T15:53:33;3.40;99.90
31074;DHT22;17730;53.552;9.940;2022-11-20T15:55:59;3.40;99.90
31074;DHT22;17730;53.552;9.940;2022-11-20T15:58:25;3.40;54.80
31074;DHT22;17730;53.552;9.940;2022-11-20T16:00:52;3.40;1.00
31074;DHT22;17730;53.552;9.940;2022-11-20T16:03:18;3.40;99.90
31074;DHT22;17730;53.552;9.940;2022-11-20T16:05:44;3.30;73.60
31074;DHT22;17730;53.552;9.940;2022-11-20T16:08:10;3.30;99.90
31074;DHT22;17730;53.552;9.940;2022-11-20T16:10:35;3.30;99.90
31074;DHT22;17730;53.552;9.940;2022-11-20T16:13:02;3.30;67.40
31074;DHT22;17730;53.552;9.940;2022-11-20T16:15:51;3.30;99.90
31074;DHT22;17730;53.552;9.940;2022-11-20T16:18:19;3.30;99.90
31074;DHT22;17730;53.552;9.940;2022-11-20T16:20:47;3.40;1.00
31074;DHT22;17730;53.552;9.940;2022-11-20T16:23:14;3.40;99.90
31074;DHT22;17730;53.552;9.940;2022-11-20T16:25:41;3.40;1.00
31074;DHT22;17730;53.552;9.940;2022-11-20T16:28:07;3.40;99.90
31074;DHT22;17730;53.552;9.940;2022-11-20T16:30:33;3.40;99.90
31074;DHT22;17730;53.552;9.940;2022-11-20T16:33:02;3.50;1.00
31074;DHT22;17730;53.552;9.940;2022-11-20T16:35:30;3.40;99.90
31074;DHT22;17730;53.552;9.940;2022-11-20T16:37:57;3.40;1.00
31074;DHT22;17730;53.552;9.940;2022-11-20T16:40:23;3.40;99.90
31074;DHT22;17730;53.552;9.940;2022-11-20T16:42:49;3.40;99.90
31074;DHT22;17730;53.552;9.940;2022-11-20T16:45:15;3.40;99.90
31074;DHT22;17730;53.552;9.940;2022-11-20T16:47:41;3.40;67.70
31074;DHT22;17730;53.552;9.940;2022-11-20T16:50:07;3.50;15.80
31074;DHT22;17730;53.552;9.940;2022-11-20T16:52:33;3.40;42.70
31074;DHT22;17730;53.552;9.940;2022-11-20T16:54:59;3.40;47.60
31074;DHT22;17730;53.552;9.940;2022-11-20T16:57:27;3.40;90.20
31074;DHT22;17730;53.552;9.940;2022-11-20T16:59:53;3.60;47.30
31074;DHT22;17730;53.552;9.940;2022-11-20T17:02:18;3.60;99.90
31074;DHT22;17730;53.552;9.940;2022-11-20T17:04:44;3.60;99.90
31074;DHT22;17730;53.552;9.940;2022-11-20T17:07:09;3.60;99.90
31074;DHT22;17730;53.552;9.940;2022-11-20T17:09:35;3.60;7.60
31074;DHT22;17730;53.552;9.940;2022-11-20T17:12:00;3.40;99.90
31074;DHT22;17730;53.552;9.940;2022-11-20T17:14:26;3.40;99.90
31074;DHT22;17730;53.552;9.940;2022-11-20T17:16:52;3.40;1.00
31074;DHT22;17730;53.552;9.940;2022-11-20T17:19:17;3.40;1.00
31074;DHT22;17730;53.552;9.940;2022-11-20T17:21:43;3.40;1.00
31074;DHT22;17730;53.552;9.940;2022-11-20T17:24:10;3.40;1.00
31074;DHT22;17730;53.552;9.940;2022-11-20T17:26:38;3.40;92.40